createdAt,value
2023-04-18T00:09:50.615Z,75.24
2023-04-18T00:39:35.043Z,75.00
2023-04-18T01:09:17.689Z,76.09
2023-04-18T01:24:09.281Z,76.62
2023-04-18T01:39:00.723Z,76.39
2023-04-18T01:53:51.866Z,76.00
2023-04-18T02:08:42.693Z,75.32
2023-04-18T02:23:33.340Z,75.24
2023-04-18T02:38:23.812Z,75.66
2023-04-18T02:53:15.346Z,75.25
2023-04-18T03:08:08.458Z,75.30
2023-04-18T03:23:00.223Z,74.81
2023-04-18T03:37:51.408Z,74.21
2023-04-18T03:52:42.592Z,72.89
2023-04-18T04:07:33.875Z,72.41
2023-04-18T04:22:26.035Z,71.66
2023-04-18T04:37:16.280Z,71.22
2023-04-18T04:52:08.445Z,71.20
2023-04-18T05:07:00.033Z,70.47
2023-04-18T05:21:51.368Z,70.32
2023-04-18T05:36:42.749Z,70.32
2023-04-18T05:51:33.949Z,70.97
2023-04-18T06:06:25.778Z,71.64
2023-04-18T06:21:17.408Z,72.45
2023-04-18T06:36:08.305Z,73.00
2023-04-18T07:20:58.160Z,72.85
2023-04-18T07:50:50.360Z,71.73
2023-04-18T08:20:36.120Z,70.57
2023-04-18T08:35:29.975Z,69.56
2023-04-18T08:50:23.316Z,69.65
2023-04-18T09:05:17.230Z,68.99
2023-04-18T10:04:58.729Z,66.42
2023-04-18T11:04:53.943Z,64.67
2023-04-18T11:19:47.702Z,64.44
2023-04-18T12:04:23.714Z,62.03
2023-04-18T12:19:14.159Z,62.15
2023-04-18T12:34:06.273Z,61.82
2023-04-18T12:48:58.382Z,61.46
2023-04-18T13:04:03.915Z,60.46
2023-04-18T13:18:43.854Z,57.79
2023-04-18T13:33:36.043Z,57.11
2023-04-18T13:48:29.762Z,57.09
2023-04-18T14:03:24.943Z,55.78
2023-04-18T14:18:18.755Z,53.88
2023-04-18T14:33:09.188Z,55.48
2023-04-18T14:48:01.981Z,56.89
2023-04-18T15:02:54.722Z,55.19
2023-04-18T15:17:46.859Z,54.69
2023-04-18T15:32:40.688Z,53.46
2023-04-18T15:47:33.503Z,53.89
2023-04-18T16:02:24.369Z,53.45
2023-04-18T16:17:14.966Z,54.08
2023-04-18T16:32:05.887Z,55.43
2023-04-18T16:46:57.530Z,56.61
2023-04-18T17:01:49.720Z,57.45
2023-04-18T17:16:42.098Z,57.97
2023-04-18T17:31:32.982Z,58.10
2023-04-18T17:46:24.075Z,58.56
2023-04-18T18:01:17.224Z,59.02
2023-04-18T18:16:11.463Z,59.51
2023-04-18T19:00:42.251Z,61.09
2023-04-18T19:15:33.525Z,62.28
2023-04-18T19:30:27.057Z,62.92
2023-04-18T19:45:19.166Z,64.14
2023-04-18T20:00:11.022Z,64.74
2023-04-18T21:29:18.172Z,68.32
2023-04-18T21:44:09.918Z,68.71
